createdAt,value
2017-01-11T00:00:10.117Z,52
2017-01-11T00:01:09.970Z,76
2017-01-11T00:02:09.634Z,84
2017-01-11T00:03:09.294Z,88
2017-01-11T00:04:09.605Z,88
2017-01-11T00:05:10.008Z,84
2017-01-11T00:06:08.841Z,84
2017-01-11T00:07:08.877Z,84
2017-01-11T00:08:09.826Z,84
2017-01-11T00:09:09.294Z,84
2017-01-11T00:10:09.643Z,80
2017-01-11T00:11:10.147Z,80
2017-01-11T00:12:10.169Z,80
2017-01-11T00:13:10.060Z,84
2017-01-11T00:14:09.771Z,84
2017-01-11T00:15:10.145Z,80
2017-01-11T00:16:08.997Z,84
2017-01-11T00:17:09.347Z,80
2017-01-11T00:18:09.355Z,80
2017-01-11T00:19:09.410Z,80
2017-01-11T00:20:09.616Z,80
2017-01-11T00:21:09.482Z,80
2017-01-11T00:22:09.286Z,80
2017-01-11T00:23:09.743Z,80
2017-01-11T00:24:10.188Z,80
2017-01-11T00:25:09.754Z,80
2017-01-11T00:26:09.909Z,80
2017-01-11T00:27:09.419Z,80
2017-01-11T00:28:09.433Z,80
2017-01-11T00:29:10.240Z,80
2017-01-11T00:30:09.491Z,80
2017-01-11T00:31:09.796Z,80
2017-01-11T00:32:09.902Z,80
2017-01-11T00:33:10.205Z,80
2017-01-11T00:34:09.866Z,80
2017-01-11T00:35:10.367Z,80
2017-01-11T00:36:10.228Z,80
2017-01-11T00:37:09.890Z,80
2017-01-11T00:38:09.549Z,0
2017-01-11T00:39:10.248Z,0
2017-01-11T00:40:10.354Z,0
2017-01-11T00:41:09.968Z,0
2017-01-11T00:42:10.320Z,0
2017-01-11T00:43:10.275Z,0
2017-01-11T00:44:09.997Z,0
2017-01-11T00:45:10.342Z,0
2017-01-11T00:46:09.609Z,84
2017-01-11T00:47:09.959Z,88
2017-01-11T00:48:09.967Z,84
2017-01-11T00:49:09.301Z,88
2017-01-11T00:50:09.931Z,84
2017-01-11T00:51:09.839Z,80
2017-01-11T00:52:09.649Z,80
2017-01-11T00:53:10.010Z,84
2017-01-11T00:54:09.573Z,84
2017-01-11T00:55:10.121Z,84
2017-01-11T00:56:10.026Z,84
2017-01-11T00:57:09.637Z,80
2017-01-11T00:58:09.648Z,80
2017-01-11T00:59:09.206Z,80
2017-01-11T01:00:09.661Z,84
2017-01-11T01:01:09.370Z,80
2017-01-11T01:02:10.465Z,80
2017-01-11T01:03:09.286Z,80
2017-01-11T01:04:10.527Z,80
2017-01-11T01:05:09.698Z,80
2017-01-11T01:06:09.305Z,80
2017-01-11T01:07:09.657Z,80
2017-01-11T01:08:09.271Z,80
2017-01-11T01:09:10.128Z,80
2017-01-11T01:10:09.733Z,80
2017-01-11T01:11:10.582Z,80
2017-01-11T01:12:10.594Z,80
2017-01-11T01:13:10.546Z,80
2017-01-11T01:14:10.358Z,80
2017-01-11T01:15:10.617Z,84
2017-01-11T01:16:09.776Z,84
2017-01-11T01:17:09.732Z,84
2017-01-11T01:18:10.581Z,80
2017-01-11T01:19:10.153Z,84
2017-01-11T01:20:09.905Z,80
2017-01-11T01:21:09.868Z,84
2017-01-11T01:22:10.215Z,80
2017-01-11T01:23:10.175Z,80
2017-01-11T01:24:09.433Z,80
2017-01-11T01:25:09.392Z,84
2017-01-11T01:26:10.193Z,84
2017-01-11T01:27:10.306Z,84
2017-01-11T01:28:24.741Z,84
2017-01-11T01:29:09.473Z,84
2017-01-11T01:30:09.824Z,80
2017-01-11T01:31:09.493Z,84
2017-01-11T01:32:10.293Z,84
2017-01-11T01:33:10.699Z,80
2017-01-11T01:34:10.754Z,80
2017-01-11T01:35:10.309Z,80
2017-01-11T01:36:09.874Z,84
2017-01-11T01:37:10.421Z,80
2017-01-11T01:38:10.280Z,80
2017-01-11T01:39:10.781Z,80
2017-01-11T01:40:10.745Z,84
2017-01-11T01:41:10.353Z,84
2017-01-11T01:42:10.734Z,80
2017-01-11T01:43:10.366Z,84
2017-01-11T01:44:10.373Z,84
2017-01-11T01:45:09.597Z,84
2017-01-11T01:46:10.389Z,80
2017-01-11T01:47:10.048Z,80
2017-01-11T01:48:10.459Z,84
2017-01-11T01:49:10.012Z,80
2017-01-11T01:50:10.371Z,80
2017-01-11T01:51:10.473Z,84
2017-01-11T01:52:10.494Z,84
2017-01-11T01:53:10.043Z,80
2017-01-11T01:54:10.851Z,84
2017-01-11T01:55:10.056Z,80
2017-01-11T01:56:10.118Z,84
2017-01-11T01:57:10.173Z,80
2017-01-11T01:58:10.535Z,84
2017-01-11T01:59:10.885Z,80
2017-01-11T02:00:10.888Z,80
2017-01-11T02:01:09.735Z,84
2017-01-11T02:02:10.555Z,84
2017-01-11T02:03:10.506Z,80
2017-01-11T02:04:10.911Z,84
2017-01-11T02:05:10.520Z,84
2017-01-11T02:06:10.141Z,84
2017-01-11T02:07:10.543Z,80
2017-01-11T02:08:10.891Z,84
2017-01-11T02:09:11.047Z,84
2017-01-11T02:10:11.055Z,84
2017-01-11T02:11:10.960Z,80
2017-01-11T02:12:11.015Z,80
2017-01-11T02:13:10.580Z,80
2017-01-11T02:14:10.929Z,80
2017-01-11T02:15:10.244Z,84
2017-01-11T02:16:10.254Z,80
2017-01-11T02:17:10.606Z,80
2017-01-11T02:18:10.218Z,80
2017-01-11T02:19:11.016Z,84
2017-01-11T02:20:10.969Z,84
2017-01-11T02:21:10.984Z,80
2017-01-11T02:22:10.596Z,80
2017-01-11T02:23:10.300Z,80
2017-01-11T02:24:10.712Z,80
2017-01-11T02:25:11.190Z,84
2017-01-11T02:26:10.717Z,84
2017-01-11T02:27:11.038Z,84
2017-01-11T02:28:10.538Z,80
2017-01-11T02:29:10.342Z,80
2017-01-11T02:30:10.743Z,80
2017-01-11T02:31:10.809Z,80
2017-01-11T02:32:11.155Z,84
2017-01-11T02:33:11.467Z,80
2017-01-11T02:34:10.722Z,80
2017-01-11T02:35:09.991Z,80
2017-01-11T02:36:11.135Z,80
2017-01-11T02:37:11.187Z,80
2017-01-11T02:38:10.355Z,80
2017-01-11T02:39:10.709Z,84
2017-01-11T02:40:10.774Z,80
2017-01-11T02:41:10.772Z,80
2017-01-11T02:42:10.486Z,80
2017-01-11T02:43:11.232Z,80
2017-01-11T02:44:10.447Z,80
2017-01-11T02:45:10.750Z,84
2017-01-11T02:46:10.460Z,80
2017-01-11T02:47:10.516Z,80
2017-01-11T02:48:10.868Z,80
2017-01-11T02:49:10.387Z,80
2017-01-11T02:50:10.494Z,80
2017-01-11T02:51:11.193Z,80
2017-01-11T02:52:10.899Z,80
2017-01-11T02:53:10.511Z,80
2017-01-11T02:54:10.415Z,84
2017-01-11T02:55:10.826Z,84
2017-01-11T02:56:10.580Z,80
2017-01-11T02:57:11.280Z,80
2017-01-11T02:58:10.443Z,80
2017-01-11T02:59:10.900Z,80
2017-01-11T03:00:10.959Z,80
2017-01-11T03:01:10.865Z,80
2017-01-11T03:02:11.270Z,80
2017-01-11T03:03:10.531Z,80
2017-01-11T03:04:10.537Z,80
2017-01-11T03:05:10.596Z,80
2017-01-11T03:06:10.963Z,80
2017-01-11T03:07:10.515Z,80
2017-01-11T03:08:10.916Z,80
2017-01-11T03:09:10.945Z,80
2017-01-11T03:10:10.536Z,80
2017-01-11T03:11:11.043Z,80
2017-01-11T03:12:11.046Z,80
2017-01-11T03:13:11.447Z,84
2017-01-11T03:14:10.958Z,80
2017-01-11T03:15:11.407Z,80
2017-01-11T03:16:10.631Z,80
2017-01-11T03:17:10.585Z,0
2017-01-11T03:18:10.796Z,0
2017-01-11T03:19:10.298Z,0
2017-01-11T03:20:10.604Z,0
2017-01-11T03:21:11.110Z,0
2017-01-11T03:22:10.666Z,0
2017-01-11T03:23:11.031Z,0
2017-01-11T03:24:11.077Z,0
2017-01-11T03:25:11.084Z,0
2017-01-11T03:26:11.092Z,0
2017-01-11T03:27:11.200Z,0
2017-01-11T03:28:11.504Z,0
2017-01-11T03:29:10.324Z,0
2017-01-11T03:30:11.067Z,0
2017-01-11T03:31:10.796Z,0
2017-01-11T03:32:10.695Z,0
2017-01-11T03:33:11.192Z,0
2017-01-11T03:34:10.359Z,0
2017-01-11T03:35:11.113Z,0
2017-01-11T03:36:11.162Z,0
2017-01-11T03:37:10.804Z,0
2017-01-11T03:38:11.677Z,0
2017-01-11T03:39:10.844Z,0
2017-01-11T03:40:11.940Z,0
2017-01-11T03:41:10.776Z,0
2017-01-11T03:42:11.216Z,0
2017-01-11T03:43:10.871Z,0
2017-01-11T03:44:10.828Z,0
2017-01-11T03:45:11.284Z,0
2017-01-11T03:46:11.641Z,0
2017-01-11T03:47:10.799Z,0
2017-01-11T03:48:11.252Z,0
2017-01-11T03:49:10.914Z,0
2017-01-11T03:50:10.880Z,0
2017-01-11T03:51:11.720Z,0
2017-01-11T03:52:10.914Z,0
2017-01-11T03:53:11.337Z,0
2017-01-11T03:54:11.297Z,0
2017-01-11T03:55:11.369Z,0
2017-01-11T03:56:11.363Z,0
2017-01-11T03:57:10.872Z,0
2017-01-11T03:58:11.372Z,0
2017-01-11T03:59:11.331Z,0
2017-01-11T04:00:11.340Z,0
2017-01-11T04:01:11.002Z,0
2017-01-11T04:02:11.407Z,0
2017-01-11T04:03:11.409Z,0
2017-01-11T04:04:11.320Z,0
2017-01-11T04:05:11.425Z,0
2017-01-11T04:06:10.935Z,0
2017-01-11T04:07:10.563Z,0
2017-01-11T04:08:11.447Z,0
2017-01-11T04:09:11.453Z,0
2017-01-11T04:10:11.016Z,0
2017-01-11T04:11:11.370Z,0
2017-01-11T04:12:11.439Z,0
2017-01-11T04:13:11.827Z,0
2017-01-11T04:14:11.843Z,0
2017-01-11T04:15:10.662Z,0
2017-01-11T04:16:10.618Z,0
2017-01-11T04:17:11.461Z,0
2017-01-11T04:18:11.469Z,0
2017-01-11T04:19:11.080Z,0
2017-01-11T04:20:11.492Z,0
2017-01-11T04:21:11.148Z,0
2017-01-11T04:22:11.498Z,0
2017-01-11T04:23:11.113Z,0
2017-01-11T04:24:11.857Z,0
2017-01-11T04:25:11.518Z,0
2017-01-11T04:26:11.578Z,0
2017-01-11T04:27:11.582Z,0
2017-01-11T04:28:11.592Z,0
2017-01-11T04:29:10.755Z,0
2017-01-11T04:30:11.604Z,0
2017-01-11T04:31:11.560Z,0
2017-01-11T04:32:10.848Z,0
2017-01-11T04:33:11.132Z,0
2017-01-11T04:34:11.244Z,0
2017-01-11T04:35:11.201Z,0
2017-01-11T04:36:11.993Z,0
2017-01-11T04:37:11.987Z,0
2017-01-11T04:38:11.265Z,0
2017-01-11T04:39:12.064Z,0
2017-01-11T04:40:10.837Z,0
2017-01-11T04:41:11.237Z,0
2017-01-11T04:42:11.640Z,0
2017-01-11T04:43:11.202Z,0
2017-01-11T04:44:12.402Z,0
2017-01-11T04:45:11.265Z,0
2017-01-11T04:46:12.118Z,0
2017-01-11T04:47:11.278Z,0
2017-01-11T04:48:11.289Z,0
2017-01-11T04:49:11.247Z,0
2017-01-11T04:50:11.748Z,0
2017-01-11T04:51:11.705Z,0
2017-01-11T04:52:11.718Z,0
2017-01-11T04:53:11.273Z,0
2017-01-11T04:54:12.072Z,0
2017-01-11T04:55:10.988Z,0
2017-01-11T04:56:11.851Z,0
2017-01-11T04:57:12.092Z,0
2017-01-11T04:58:11.407Z,0
2017-01-11T04:59:12.160Z,0
2017-01-11T05:00:11.818Z,0
2017-01-11T05:01:12.118Z,0
2017-01-11T05:02:11.386Z,0
2017-01-11T05:03:11.788Z,0
2017-01-11T05:04:11.846Z,0
2017-01-11T05:05:12.248Z,0
2017-01-11T05:06:11.413Z,0
2017-01-11T05:07:11.421Z,0
2017-01-11T05:08:11.876Z,0
2017-01-11T05:09:11.388Z,0
2017-01-11T05:10:11.455Z,0
2017-01-11T05:11:12.293Z,0
2017-01-11T05:12:11.854Z,0
2017-01-11T05:13:12.310Z,0
2017-01-11T05:14:12.267Z,0
2017-01-11T05:15:12.270Z,0
2017-01-11T05:16:11.488Z,0
2017-01-11T05:17:11.395Z,0
2017-01-11T05:18:11.503Z,0
2017-01-11T05:19:11.953Z,0
2017-01-11T05:20:11.118Z,0
2017-01-11T05:21:12.262Z,0
2017-01-11T05:22:11.180Z,0
2017-01-11T05:23:11.536Z,0
2017-01-11T05:24:12.383Z,0
2017-01-11T05:25:11.998Z,0
2017-01-11T05:26:12.299Z,0
2017-01-11T05:27:11.956Z,0
2017-01-11T05:28:11.942Z,0
2017-01-11T05:29:12.019Z,0
2017-01-11T05:30:12.376Z,0
2017-01-11T05:31:11.194Z,0
2017-01-11T05:32:12.394Z,0
2017-01-11T05:33:12.394Z,0
2017-01-11T05:34:12.036Z,0
2017-01-11T05:35:11.668Z,0
2017-01-11T05:36:12.142Z,0
2017-01-11T05:37:11.286Z,0
2017-01-11T05:38:11.987Z,0
2017-01-11T05:39:12.441Z,0
2017-01-11T05:40:12.001Z,0
2017-01-11T05:41:12.006Z,0
2017-01-11T05:42:11.769Z,0
2017-01-11T05:43:12.124Z,0
2017-01-11T05:44:11.681Z,0
2017-01-11T05:45:12.184Z,0
2017-01-11T05:46:11.398Z,0
2017-01-11T05:47:11.802Z,0
2017-01-11T05:48:12.550Z,0
2017-01-11T05:49:12.116Z,0
2017-01-11T05:50:12.515Z,0
2017-01-11T05:51:11.436Z,0
2017-01-11T05:52:11.888Z,0
2017-01-11T05:53:11.692Z,0
2017-01-11T05:54:12.592Z,0
2017-01-11T05:55:12.602Z,0
2017-01-11T05:56:11.771Z,0
2017-01-11T05:57:12.121Z,0
2017-01-11T05:58:12.328Z,0
2017-01-11T05:59:11.486Z,0
2017-01-11T06:00:12.594Z,0
2017-01-11T06:01:12.282Z,0
2017-01-11T06:02:12.650Z,0
2017-01-11T06:03:11.866Z,0
2017-01-11T06:04:12.317Z,0
2017-01-11T06:05:12.273Z,0
2017-01-11T06:06:11.782Z,0
2017-01-11T06:07:11.444Z,0
2017-01-11T06:08:12.293Z,0
2017-01-11T06:09:11.856Z,0
2017-01-11T06:10:12.702Z,0
2017-01-11T06:11:12.269Z,0
2017-01-11T06:12:12.269Z,0
2017-01-11T06:13:11.885Z,0
2017-01-11T06:14:12.287Z,0
2017-01-11T06:15:12.689Z,0
2017-01-11T06:16:12.353Z,0
2017-01-11T06:17:12.309Z,0
2017-01-11T06:18:12.316Z,0
2017-01-11T06:19:11.576Z,0
2017-01-11T06:20:11.983Z,0
2017-01-11T06:21:12.386Z,0
2017-01-11T06:22:11.946Z,0
2017-01-11T06:23:11.961Z,0
2017-01-11T06:24:11.959Z,0
2017-01-11T06:25:12.364Z,0
2017-01-11T06:26:12.422Z,0
2017-01-11T06:27:12.382Z,0
2017-01-11T06:28:11.739Z,0
2017-01-11T06:29:12.445Z,0
2017-01-11T06:30:12.003Z,0
2017-01-11T06:31:12.387Z,0
2017-01-11T06:32:12.411Z,0
2017-01-11T06:33:12.520Z,0
2017-01-11T06:34:11.985Z,0
2017-01-11T06:35:12.036Z,0
2017-01-11T06:36:12.835Z,0
2017-01-11T06:37:12.392Z,0
2017-01-11T06:38:12.797Z,0
2017-01-11T06:39:12.806Z,0
2017-01-11T06:40:12.069Z,0
2017-01-11T06:41:12.473Z,0
2017-01-11T06:42:12.182Z,0
2017-01-11T06:43:12.889Z,0
2017-01-11T06:44:12.447Z,0
2017-01-11T06:45:12.179Z,0
2017-01-11T06:46:12.608Z,0
2017-01-11T06:47:12.071Z,0
2017-01-11T06:48:11.829Z,0
2017-01-11T06:49:12.184Z,0
2017-01-11T06:50:12.513Z,0
2017-01-11T06:51:12.549Z,0
2017-01-11T06:52:12.904Z,0
2017-01-11T06:53:12.161Z,0
2017-01-11T06:54:12.268Z,0
2017-01-11T06:55:11.784Z,0
2017-01-11T06:56:12.976Z,0
2017-01-11T06:57:12.293Z,0
2017-01-11T06:58:12.986Z,0
2017-01-11T06:59:11.860Z,0
2017-01-11T07:00:12.609Z,0
2017-01-11T07:01:11.771Z,0
2017-01-11T07:02:13.069Z,0
2017-01-11T07:03:12.680Z,0
2017-01-11T07:04:12.256Z,0
2017-01-11T07:05:12.641Z,0
2017-01-11T07:06:12.703Z,0
2017-01-11T07:07:13.105Z,0
2017-01-11T07:08:12.661Z,0
2017-01-11T07:09:13.017Z,0
2017-01-11T07:10:12.676Z,0
2017-01-11T07:11:12.293Z,0
2017-01-11T07:12:30.771Z,0
2017-01-11T07:13:12.748Z,0
2017-01-11T07:14:12.312Z,0
2017-01-11T07:15:12.618Z,4
2017-01-11T07:16:12.719Z,4
2017-01-11T07:17:13.173Z,4
2017-01-11T07:18:12.288Z,4
2017-01-11T07:19:12.346Z,0
2017-01-11T07:20:13.097Z,4
2017-01-11T07:21:12.752Z,4
2017-01-11T07:22:12.315Z,4
2017-01-11T07:23:12.766Z,4
2017-01-11T07:24:12.328Z,4
2017-01-11T07:25:13.228Z,4
2017-01-11T07:26:12.839Z,8
2017-01-11T07:27:12.844Z,4
2017-01-11T07:28:27.262Z,4
2017-01-11T07:29:12.812Z,8
2017-01-11T07:30:12.765Z,8
2017-01-11T07:31:13.219Z,8
2017-01-11T07:32:12.481Z,8
2017-01-11T07:33:12.888Z,12
2017-01-11T07:34:12.446Z,12
2017-01-11T07:35:12.454Z,12
2017-01-11T07:36:12.566Z,12
2017-01-11T07:37:12.518Z,12
2017-01-11T07:38:12.820Z,12
2017-01-11T07:39:13.272Z,12
2017-01-11T07:40:12.891Z,12
2017-01-11T07:41:12.546Z,12
2017-01-11T07:42:12.945Z,12
2017-01-11T07:43:13.005Z,12
2017-01-11T07:44:12.120Z,12
2017-01-11T07:45:13.318Z,16
2017-01-11T07:46:12.682Z,16
2017-01-11T07:47:13.037Z,16
2017-01-11T07:48:13.291Z,16
2017-01-11T07:49:12.554Z,20
2017-01-11T07:50:12.563Z,20
2017-01-11T07:51:12.568Z,16
2017-01-11T07:52:13.416Z,20
2017-01-11T07:53:13.373Z,20
2017-01-11T07:54:12.590Z,20
2017-01-11T07:55:13.469Z,16
2017-01-11T07:56:12.998Z,12
2017-01-11T07:57:13.010Z,16
2017-01-11T07:58:27.551Z,12
2017-01-11T07:59:13.020Z,16
2017-01-11T08:00:13.034Z,20
2017-01-11T08:01:13.037Z,24
2017-01-11T08:02:13.687Z,20
2017-01-11T08:03:13.004Z,20
2017-01-11T08:04:13.110Z,20
2017-01-11T08:05:13.069Z,20
2017-01-11T08:06:13.024Z,20
2017-01-11T08:07:12.641Z,24
2017-01-11T08:08:12.645Z,24
2017-01-11T08:09:13.102Z,24
2017-01-11T08:10:12.806Z,32
2017-01-11T08:11:13.506Z,36
2017-01-11T08:12:12.773Z,40
2017-01-11T08:13:13.629Z,44
2017-01-11T08:14:13.526Z,48
2017-01-11T08:15:13.142Z,52
2017-01-11T08:16:12.806Z,52
2017-01-11T08:17:13.559Z,56
2017-01-11T08:18:12.426Z,60
2017-01-11T08:19:13.219Z,60
2017-01-11T08:20:13.529Z,64
2017-01-11T08:21:13.298Z,60
2017-01-11T08:22:13.670Z,52
2017-01-11T08:23:13.152Z,60
2017-01-11T08:24:13.164Z,64
2017-01-11T08:25:13.614Z,64
2017-01-11T08:26:13.676Z,64
2017-01-11T08:27:12.889Z,64
2017-01-11T08:28:27.974Z,72
2017-01-11T08:29:12.907Z,76
2017-01-11T08:30:13.562Z,92
2017-01-11T08:31:12.976Z,116
2017-01-11T08:32:13.624Z,112
2017-01-11T08:33:13.234Z,100
2017-01-11T08:34:27.775Z,100
2017-01-11T08:35:13.747Z,104
2017-01-11T08:36:12.567Z,104
2017-01-11T08:37:13.364Z,112
2017-01-11T08:38:13.324Z,116
2017-01-11T08:39:13.378Z,108
2017-01-11T08:40:13.342Z,108
2017-01-11T08:41:12.899Z,108
2017-01-11T08:42:12.913Z,104
2017-01-11T08:43:13.336Z,88
2017-01-11T08:44:13.375Z,76
2017-01-11T08:45:13.376Z,84
2017-01-11T08:46:13.393Z,88
2017-01-11T08:47:13.695Z,76
2017-01-11T08:48:13.748Z,72
2017-01-11T08:49:13.064Z,68
2017-01-11T08:50:13.417Z,84
2017-01-11T08:51:13.777Z,88
2017-01-11T08:52:13.485Z,92
2017-01-11T08:53:13.493Z,108
2017-01-11T08:54:13.156Z,120
2017-01-11T08:55:13.457Z,132
2017-01-11T08:56:13.071Z,128
2017-01-11T08:57:13.577Z,124
2017-01-11T08:58:13.485Z,116
2017-01-11T08:59:13.436Z,120
2017-01-11T09:00:13.549Z,128
2017-01-11T09:01:13.154Z,140
2017-01-11T09:02:13.559Z,152
2017-01-11T09:03:13.203Z,172
2017-01-11T09:04:13.977Z,192
2017-01-11T09:05:13.785Z,212
2017-01-11T09:06:13.988Z,180
2017-01-11T09:07:13.502Z,172
2017-01-11T09:08:13.163Z,192
2017-01-11T09:09:13.221Z,176
2017-01-11T09:10:13.972Z,136
2017-01-11T09:11:13.241Z,96
2017-01-11T09:12:13.593Z,96
2017-01-11T09:13:13.706Z,112
2017-01-11T09:14:13.162Z,112
2017-01-11T09:15:12.823Z,116
2017-01-11T09:16:14.019Z,116
2017-01-11T09:17:13.629Z,112
2017-01-11T09:18:14.088Z,84
2017-01-11T09:19:14.145Z,64
2017-01-11T09:20:13.657Z,64
2017-01-11T09:21:13.317Z,64
2017-01-11T09:22:14.022Z,64
2017-01-11T09:23:12.941Z,76
2017-01-11T09:24:13.786Z,100
2017-01-11T09:25:13.694Z,92
2017-01-11T09:26:13.655Z,80
2017-01-11T09:27:12.867Z,72
2017-01-11T09:28:13.717Z,68
2017-01-11T09:29:13.333Z,72
2017-01-11T09:30:13.391Z,76
2017-01-11T09:31:13.745Z,68
2017-01-11T09:32:13.852Z,84
2017-01-11T09:33:13.710Z,96
2017-01-11T09:34:13.323Z,100
2017-01-11T09:35:13.280Z,104
2017-01-11T09:36:13.442Z,100
2017-01-11T09:37:13.099Z,96
2017-01-11T09:38:13.797Z,92
2017-01-11T09:39:13.905Z,96
2017-01-11T09:40:13.864Z,112
2017-01-11T09:41:13.827Z,120
2017-01-11T09:42:14.177Z,128
2017-01-11T09:43:13.840Z,132
2017-01-11T09:44:13.799Z,144
2017-01-11T09:45:13.901Z,156
2017-01-11T09:46:13.864Z,160
2017-01-11T09:47:13.820Z,172
2017-01-11T09:48:13.981Z,208
2017-01-11T09:49:13.090Z,196
2017-01-11T09:50:14.311Z,176
2017-01-11T09:51:13.461Z,196
2017-01-11T09:52:13.967Z,188
2017-01-11T09:53:13.970Z,176
2017-01-11T09:54:14.423Z,168
2017-01-11T09:55:13.590Z,152
2017-01-11T09:56:13.894Z,128
2017-01-11T09:57:14.493Z,124
2017-01-11T09:58:28.593Z,140
2017-01-11T09:59:14.122Z,140
2017-01-11T10:00:14.770Z,128
2017-01-11T10:01:14.083Z,120
2017-01-11T10:02:13.644Z,104
2017-01-11T10:03:14.400Z,112
2017-01-11T10:04:14.059Z,112
2017-01-11T10:05:14.168Z,120
2017-01-11T10:06:14.271Z,128
2017-01-11T10:07:14.738Z,128
2017-01-11T10:08:14.196Z,148
2017-01-11T10:09:14.152Z,164
2017-01-11T10:10:14.403Z,152
2017-01-11T10:11:15.066Z,148
2017-01-11T10:12:15.126Z,140
2017-01-11T10:13:14.573Z,136
2017-01-11T10:14:13.795Z,116
2017-01-11T10:15:13.798Z,120
2017-01-11T10:16:14.504Z,116
2017-01-11T10:17:13.815Z,96
2017-01-11T10:18:13.726Z,88
2017-01-11T10:19:13.880Z,112
2017-01-11T10:20:14.234Z,124
2017-01-11T10:21:14.255Z,112
2017-01-11T10:22:15.694Z,120
2017-01-11T10:23:13.866Z,120
2017-01-11T10:24:14.067Z,124
2017-01-11T10:25:14.377Z,128
2017-01-11T10:26:14.380Z,128
2017-01-11T10:27:13.993Z,108
2017-01-11T10:28:16.099Z,100
2017-01-11T10:29:14.848Z,108
2017-01-11T10:30:14.512Z,104
2017-01-11T10:31:13.974Z,116
2017-01-11T10:32:14.727Z,128
2017-01-11T10:33:14.188Z,120
2017-01-11T10:34:14.344Z,116
2017-01-11T10:35:13.608Z,132
2017-01-11T10:36:14.407Z,148
2017-01-11T10:37:14.416Z,144
2017-01-11T10:38:13.638Z,136
2017-01-11T10:39:14.383Z,128
2017-01-11T10:40:14.643Z,128
2017-01-11T10:41:14.745Z,112
2017-01-11T10:42:15.760Z,112
2017-01-11T10:43:14.574Z,120
2017-01-11T10:44:14.079Z,148
2017-01-11T10:45:14.088Z,156
2017-01-11T10:46:13.899Z,164
2017-01-11T10:47:15.045Z,156
2017-01-11T10:48:14.109Z,180
2017-01-11T10:49:14.318Z,192
2017-01-11T10:50:14.474Z,164
2017-01-11T10:51:14.924Z,144
2017-01-11T10:52:15.933Z,136
2017-01-11T10:53:15.095Z,152
2017-01-11T10:54:13.609Z,136
2017-01-11T10:55:15.355Z,148
2017-01-11T10:56:14.131Z,144
2017-01-11T10:57:17.029Z,128
2017-01-11T10:58:14.592Z,152
2017-01-11T10:59:15.043Z,128
2017-01-11T11:00:14.802Z,156
2017-01-11T11:01:15.004Z,136
2017-01-11T11:02:14.464Z,120
2017-01-11T11:03:15.023Z,128
2017-01-11T11:04:14.235Z,92
2017-01-11T11:05:14.591Z,64
2017-01-11T11:06:15.743Z,84
2017-01-11T11:07:14.560Z,96
2017-01-11T11:08:14.586Z,104
2017-01-11T11:09:14.374Z,108
2017-01-11T11:10:14.781Z,132
2017-01-11T11:11:14.937Z,116
2017-01-11T11:12:17.948Z,136
2017-01-11T11:13:14.704Z,116
2017-01-11T11:14:15.016Z,104
2017-01-11T11:15:14.774Z,148
2017-01-11T11:16:14.332Z,128
2017-01-11T11:17:14.636Z,120
2017-01-11T11:18:14.348Z,124
2017-01-11T11:19:14.757Z,108
2017-01-11T11:20:14.768Z,80
2017-01-11T11:21:14.973Z,72
2017-01-11T11:22:14.684Z,72
2017-01-11T11:23:15.331Z,72
2017-01-11T11:24:14.796Z,72
2017-01-11T11:25:14.307Z,64
2017-01-11T11:26:15.115Z,64
2017-01-11T11:27:14.816Z,60
2017-01-11T11:28:17.626Z,64
2017-01-11T11:29:15.237Z,60
2017-01-11T11:30:14.608Z,72
2017-01-11T11:31:14.850Z,72
2017-01-11T11:32:14.363Z,68
2017-01-11T11:33:14.867Z,64
2017-01-11T11:34:15.275Z,52
2017-01-11T11:35:15.228Z,68
2017-01-11T11:36:15.526Z,72
2017-01-11T11:37:15.499Z,64
2017-01-11T11:38:14.906Z,68
2017-01-11T11:39:16.160Z,124
2017-01-11T11:40:14.536Z,156
2017-01-11T11:41:14.830Z,144
2017-01-11T11:42:15.039Z,136
2017-01-11T11:43:14.997Z,132
2017-01-11T11:44:14.854Z,128
2017-01-11T11:45:15.317Z,128
2017-01-11T11:46:14.529Z,124
2017-01-11T11:47:15.878Z,128
2017-01-11T11:48:15.107Z,124
2017-01-11T11:49:15.100Z,124
2017-01-11T11:50:15.397Z,120
2017-01-11T11:51:15.458Z,120
2017-01-11T11:52:15.073Z,116
2017-01-11T11:53:29.464Z,120
2017-01-11T11:54:14.566Z,124
2017-01-11T11:55:15.299Z,124
2017-01-11T11:56:14.756Z,124
2017-01-11T11:57:15.111Z,116
2017-01-11T11:58:15.924Z,128
2017-01-11T11:59:16.032Z,148
2017-01-11T12:00:15.285Z,144
2017-01-11T12:01:15.691Z,136
2017-01-11T12:02:16.953Z,152
2017-01-11T12:03:15.610Z,148
2017-01-11T12:04:15.164Z,184
2017-01-11T12:05:15.295Z,176
2017-01-11T12:06:15.475Z,160
2017-01-11T12:07:15.391Z,156
2017-01-11T12:08:15.093Z,152
2017-01-11T12:09:15.150Z,136
2017-01-11T12:10:15.211Z,124
2017-01-11T12:11:14.430Z,116
2017-01-11T12:12:17.028Z,116
2017-01-11T12:13:14.986Z,112
2017-01-11T12:14:14.745Z,112
2017-01-11T12:15:14.856Z,132
2017-01-11T12:16:14.758Z,152
2017-01-11T12:17:15.515Z,164
2017-01-11T12:18:15.175Z,172
2017-01-11T12:19:14.832Z,172
2017-01-11T12:20:15.832Z,180
2017-01-11T12:21:15.539Z,204
2017-01-11T12:22:15.497Z,192
2017-01-11T12:23:15.113Z,160
2017-01-11T12:24:14.724Z,136
2017-01-11T12:25:15.378Z,144
2017-01-11T12:26:15.432Z,168
2017-01-11T12:27:14.801Z,156
2017-01-11T12:28:15.311Z,128
2017-01-11T12:29:15.170Z,128
2017-01-11T12:30:15.169Z,140
2017-01-11T12:31:15.292Z,136
2017-01-11T12:32:15.086Z,156
2017-01-11T12:33:14.846Z,136
2017-01-11T12:34:15.251Z,120
2017-01-11T12:35:15.549Z,136
2017-01-11T12:36:15.562Z,188
2017-01-11T12:37:14.827Z,196
2017-01-11T12:38:14.883Z,168
2017-01-11T12:39:15.300Z,144
2017-01-11T12:40:15.295Z,172
2017-01-11T12:41:14.464Z,180
2017-01-11T12:42:15.604Z,208
2017-01-11T12:43:14.924Z,228
2017-01-11T12:44:15.673Z,236
2017-01-11T12:45:14.947Z,232
2017-01-11T12:46:15.592Z,240
2017-01-11T12:47:15.649Z,260
2017-01-11T12:48:14.961Z,244
2017-01-11T12:49:15.366Z,256
2017-01-11T12:50:15.328Z,276
2017-01-11T12:51:14.891Z,288
2017-01-11T12:52:14.945Z,292
2017-01-11T12:53:14.907Z,252
2017-01-11T12:54:15.456Z,268
2017-01-11T12:55:15.019Z,268
2017-01-11T12:56:14.975Z,260
2017-01-11T12:57:14.939Z,232
2017-01-11T12:58:16.592Z,240
2017-01-11T12:59:15.548Z,244
2017-01-11T13:00:17.705Z,248
2017-01-11T13:01:15.169Z,244
2017-01-11T13:02:16.220Z,272
2017-01-11T13:03:15.495Z,284
2017-01-11T13:04:16.392Z,276
2017-01-11T13:05:15.995Z,236
2017-01-11T13:06:15.857Z,240
2017-01-11T13:07:16.043Z,256
2017-01-11T13:08:15.183Z,232
2017-01-11T13:09:15.674Z,216
2017-01-11T13:10:18.084Z,232
2017-01-11T13:11:15.602Z,240
2017-01-11T13:12:15.955Z,236
2017-01-11T13:13:16.058Z,212
2017-01-11T13:14:15.576Z,172
2017-01-11T13:15:15.574Z,172
2017-01-11T13:16:15.937Z,188
2017-01-11T13:17:15.645Z,184
2017-01-11T13:18:15.599Z,156
2017-01-11T13:19:15.263Z,164
2017-01-11T13:20:15.322Z,164
2017-01-11T13:21:15.674Z,148
2017-01-11T13:22:15.342Z,132
2017-01-11T13:23:16.543Z,116
2017-01-11T13:24:15.249Z,116
2017-01-11T13:25:14.911Z,120
2017-01-11T13:26:16.113Z,128
2017-01-11T13:27:15.521Z,152
2017-01-11T13:28:15.385Z,156
2017-01-11T13:29:16.187Z,164
2017-01-11T13:30:15.851Z,140
2017-01-11T13:31:16.153Z,128
2017-01-11T13:32:15.810Z,124
2017-01-11T13:33:15.676Z,132
2017-01-11T13:34:17.784Z,144
2017-01-11T13:35:17.483Z,148
2017-01-11T13:36:15.747Z,164
2017-01-11T13:37:16.848Z,168
2017-01-11T13:38:15.067Z,168
2017-01-11T13:39:15.419Z,224
2017-01-11T13:40:17.570Z,204
2017-01-11T13:41:17.391Z,320
2017-01-11T13:42:16.342Z,264
2017-01-11T13:43:15.753Z,292
2017-01-11T13:44:15.758Z,284
2017-01-11T13:45:16.311Z,304
2017-01-11T13:46:15.930Z,308
2017-01-11T13:47:16.276Z,280
2017-01-11T13:48:16.440Z,264
2017-01-11T13:49:15.946Z,244
2017-01-11T13:50:15.901Z,280
2017-01-11T13:51:15.489Z,280
2017-01-11T13:52:17.730Z,300
2017-01-11T13:53:18.841Z,296
2017-01-11T13:54:18.439Z,300
2017-01-11T13:55:16.045Z,300
2017-01-11T13:56:15.907Z,284
2017-01-11T13:57:16.417Z,264
2017-01-11T13:58:15.520Z,228
2017-01-11T13:59:17.020Z,248
2017-01-11T14:00:17.084Z,216
2017-01-11T14:01:15.995Z,196
2017-01-11T14:02:16.559Z,192
2017-01-11T14:03:15.620Z,200
2017-01-11T14:04:16.472Z,196
2017-01-11T14:05:16.467Z,196
2017-01-11T14:06:17.481Z,192
2017-01-11T14:07:16.341Z,188
2017-01-11T14:08:16.694Z,192
2017-01-11T14:09:15.310Z,200
2017-01-11T14:10:15.254Z,204
2017-01-11T14:11:15.629Z,200
2017-01-11T14:12:16.628Z,200
2017-01-11T14:13:16.537Z,196
2017-01-11T14:14:15.872Z,192